createdAt,value
2022-12-18T00:01:25.643Z,72.85
2022-12-18T00:03:53.447Z,72.77
2022-12-18T00:06:21.091Z,73.85
2022-12-18T00:08:48.674Z,77.90
2022-12-18T00:11:17.675Z,77.83
2022-12-18T00:13:44.561Z,77.03
2022-12-18T00:16:16.940Z,76.24
2022-12-18T00:18:43.919Z,75.42
2022-12-18T00:21:12.800Z,76.62
2022-12-18T00:23:40.899Z,76.87
2022-12-18T00:26:11.747Z,76.54
2022-12-18T00:28:38.283Z,76.59
2022-12-18T00:31:07.704Z,76.65
2022-12-18T00:33:35.270Z,76.98
2022-12-18T00:36:07.659Z,77.77
2022-12-18T00:38:35.025Z,77.91
2022-12-18T00:41:02.020Z,77.73
2022-12-18T00:43:28.882Z,77.45
2022-12-18T00:45:55.644Z,77.50
2022-12-18T00:48:23.051Z,76.98
2022-12-18T00:50:50.208Z,76.88
2022-12-18T00:53:17.060Z,77.14
2022-12-18T00:55:43.926Z,77.64
2022-12-18T00:58:11.496Z,78.09
2022-12-18T01:00:38.998Z,78.67
2022-12-18T01:03:06.215Z,78.47
2022-12-18T01:05:32.924Z,78.03
2022-12-18T01:08:00.329Z,78.47
2022-12-18T01:10:26.923Z,79.24
2022-12-18T01:12:57.853Z,79.02
2022-12-18T01:15:24.349Z,79.19
2022-12-18T01:17:53.583Z,79.95
2022-12-18T01:20:20.572Z,80.27
2022-12-18T01:22:47.383Z,80.19
2022-12-18T01:25:13.877Z,80.06
2022-12-18T01:27:40.532Z,80.19
2022-12-18T01:30:07.758Z,80.11
2022-12-18T01:32:34.592Z,80.02
2022-12-18T01:35:04.940Z,79.92
2022-12-18T01:37:31.465Z,79.76
2022-12-18T01:39:58.019Z,79.64
2022-12-18T01:42:24.585Z,80.03
2022-12-18T01:44:59.998Z,79.61
2022-12-18T01:47:43.738Z,79.12
2022-12-18T01:50:46.324Z,79.30
2022-12-18T01:53:16.754Z,79.24
2022-12-18T01:55:51.241Z,78.82
2022-12-18T01:58:18.646Z,78.91
2022-12-18T02:00:45.541Z,78.74
2022-12-18T02:03:12.864Z,79.03
2022-12-18T02:05:39.456Z,78.40
2022-12-18T02:08:16.204Z,78.22
2022-12-18T02:10:55.227Z,78.05
2022-12-18T02:13:44.823Z,78.38
2022-12-18T02:16:42.166Z,78.39
2022-12-18T02:19:37.055Z,78.56
2022-12-18T02:22:32.330Z,78.23
2022-12-18T02:25:17.000Z,78.11
2022-12-18T02:27:47.456Z,77.81
2022-12-18T02:30:15.495Z,77.94
2022-12-18T02:32:47.255Z,78.33
2022-12-18T02:35:20.137Z,78.18
2022-12-18T02:37:48.832Z,78.10
2022-12-18T02:40:18.072Z,78.24
2022-12-18T02:42:44.986Z,78.04
2022-12-18T02:45:15.227Z,78.53
2022-12-18T02:47:44.515Z,78.32
2022-12-18T02:50:36.955Z,78.28
2022-12-18T02:53:37.538Z,78.09
2022-12-18T02:56:22.565Z,78.09
2022-12-18T02:59:01.626Z,77.89
2022-12-18T03:01:44.125Z,78.20
2022-12-18T03:04:16.105Z,78.06
2022-12-18T03:06:52.703Z,78.20
2022-12-18T03:09:25.412Z,78.01
2022-12-18T03:12:24.606Z,78.20
2022-12-18T03:15:05.025Z,78.28
2022-12-18T03:17:33.757Z,78.03
2022-12-18T03:20:08.434Z,78.49
2022-12-18T03:22:38.518Z,78.21
2022-12-18T03:25:09.839Z,77.93
2022-12-18T03:27:43.163Z,77.79
2022-12-18T03:30:13.797Z,77.84
2022-12-18T03:32:49.887Z,77.80
2022-12-18T03:35:24.155Z,77.54
2022-12-18T03:37:51.052Z,78.01
2022-12-18T03:40:18.216Z,77.82
2022-12-18T03:42:56.141Z,77.71
2022-12-18T03:45:38.305Z,77.53
2022-12-18T03:48:30.025Z,76.55
2022-12-18T03:51:10.031Z,75.47
2022-12-18T03:54:10.870Z,76.94
2022-12-18T03:56:48.418Z,77.36
2022-12-18T03:59:17.545Z,77.56
2022-12-18T04:01:48.613Z,76.70
2022-12-18T04:04:18.700Z,76.23
2022-12-18T04:06:47.898Z,74.22
2022-12-18T04:09:15.633Z,74.53
2022-12-18T04:11:47.508Z,74.17
2022-12-18T04:14:17.877Z,74.41
2022-12-18T04:16:45.301Z,74.92
2022-12-18T04:19:15.258Z,74.07
2022-12-18T04:21:43.978Z,74.38
2022-12-18T04:24:12.448Z,74.45
2022-12-18T04:26:44.957Z,74.54
2022-12-18T04:29:22.657Z,74.47
2022-12-18T04:31:49.552Z,74.60
2022-12-18T04:34:16.865Z,74.49
2022-12-18T04:36:49.452Z,74.19
2022-12-18T04:39:16.618Z,74.49
2022-12-18T04:41:43.701Z,74.83
2022-12-18T04:44:10.246Z,74.15
2022-12-18T04:46:36.809Z,74.33
2022-12-18T04:49:03.373Z,74.14
2022-12-18T04:51:29.895Z,74.46
2022-12-18T04:53:56.426Z,74.19
2022-12-18T04:56:23.503Z,74.51
2022-12-18T04:58:50.353Z,74.16
2022-12-18T05:01:18.714Z,74.03
2022-12-18T05:03:45.766Z,74.04
2022-12-18T05:06:12.706Z,74.40
2022-12-18T05:08:39.468Z,73.88
2022-12-18T05:11:07.458Z,73.68
2022-12-18T05:13:34.265Z,73.29
2022-12-18T05:16:00.901Z,73.66
2022-12-18T05:18:27.967Z,74.09
2022-12-18T05:20:55.429Z,73.69
2022-12-18T05:23:23.418Z,73.71
2022-12-18T05:25:53.542Z,73.78
2022-12-18T05:28:20.923Z,73.52
2022-12-18T05:30:55.895Z,73.62
2022-12-18T05:33:24.674Z,73.72
2022-12-18T05:35:52.844Z,73.32
2022-12-18T05:38:20.787Z,73.56
2022-12-18T05:40:49.046Z,73.75
2022-12-18T05:43:20.989Z,73.37
2022-12-18T05:45:48.962Z,73.02
2022-12-18T05:48:16.548Z,73.19
2022-12-18T05:50:48.081Z,72.94
2022-12-18T05:53:20.379Z,72.83
2022-12-18T05:55:47.475Z,71.84
2022-12-18T05:58:15.386Z,71.35
2022-12-18T06:00:46.832Z,72.09
2022-12-18T06:03:14.287Z,72.60
2022-12-18T06:05:43.432Z,73.27
2022-12-18T06:08:11.473Z,73.73
2022-12-18T06:10:38.520Z,71.91
2022-12-18T06:13:07.095Z,71.18
2022-12-18T06:15:34.221Z,71.46
2022-12-18T06:18:01.738Z,71.69
2022-12-18T06:20:33.215Z,72.18
2022-12-18T06:23:00.395Z,72.66
2022-12-18T06:25:27.102Z,72.06
2022-12-18T06:27:53.643Z,72.21
2022-12-18T06:30:20.514Z,72.55
2022-12-18T06:32:53.078Z,72.24
2022-12-18T06:35:23.137Z,72.86
2022-12-18T06:37:49.633Z,71.49
2022-12-18T06:40:16.257Z,70.98
2022-12-18T06:42:43.022Z,71.83
2022-12-18T06:45:10.000Z,71.60
2022-12-18T06:47:36.591Z,72.52
2022-12-18T06:50:03.732Z,72.09
2022-12-18T06:52:32.920Z,71.59
2022-12-18T06:54:59.426Z,71.10
2022-12-18T06:57:25.968Z,72.59
2022-12-18T06:59:52.474Z,72.56
2022-12-18T07:02:19.185Z,70.90
2022-12-18T07:04:47.775Z,71.07
2022-12-18T07:07:15.254Z,70.48
2022-12-18T07:09:41.782Z,71.46
2022-12-18T07:12:08.940Z,72.08
2022-12-18T07:14:35.460Z,71.81
2022-12-18T07:17:02.576Z,71.42
2022-12-18T07:19:30.426Z,71.30
2022-12-18T07:21:57.597Z,71.57
2022-12-18T07:24:24.236Z,71.52
2022-12-18T07:26:50.802Z,70.81
2022-12-18T07:29:17.323Z,71.06
2022-12-18T07:31:44.102Z,71.43
2022-12-18T07:34:12.649Z,71.40
2022-12-18T07:36:39.501Z,70.19
2022-12-18T07:39:06.085Z,70.82
2022-12-18T07:41:32.692Z,71.47
2022-12-18T07:44:11.160Z,71.77
2022-12-18T07:46:37.779Z,71.09
2022-12-18T07:49:04.360Z,71.06
2022-12-18T07:51:31.612Z,70.83
2022-12-18T07:53:58.299Z,71.13
2022-12-18T07:56:29.524Z,71.55
2022-12-18T07:58:57.354Z,69.70
2022-12-18T08:01:24.209Z,69.18
2022-12-18T08:03:52.162Z,70.14
2022-12-18T08:06:19.517Z,70.13
2022-12-18T08:08:55.891Z,69.63
2022-12-18T08:11:23.566Z,69.23
2022-12-18T08:13:50.183Z,69.94
2022-12-18T08:16:16.776Z,69.68
2022-12-18T08:18:43.708Z,69.86
2022-12-18T08:21:15.807Z,69.90
2022-12-18T08:23:43.745Z,70.09
2022-12-18T08:26:12.089Z,69.59
2022-12-18T08:28:38.892Z,68.61
2022-12-18T08:31:05.854Z,68.34
2022-12-18T08:33:33.482Z,68.22
2022-12-18T08:36:01.168Z,68.19
2022-12-18T08:38:27.769Z,68.67
2022-12-18T08:41:03.576Z,68.49
2022-12-18T08:43:49.121Z,68.16
2022-12-18T08:46:15.662Z,68.43
2022-12-18T08:48:43.051Z,67.69
2022-12-18T08:51:12.698Z,67.35
2022-12-18T08:53:40.178Z,67.73
2022-12-18T08:56:08.907Z,68.22
2022-12-18T08:58:35.470Z,68.17
2022-12-18T09:01:07.160Z,67.65
2022-12-18T09:03:34.146Z,68.27
2022-12-18T09:06:00.926Z,68.17
2022-12-18T09:08:28.404Z,67.75
2022-12-18T09:10:57.549Z,67.56
2022-12-18T09:13:24.299Z,66.85
2022-12-18T09:15:53.294Z,66.87
2022-12-18T09:18:21.692Z,67.29
2022-12-18T09:20:48.517Z,67.15
2022-12-18T09:23:15.552Z,67.42
2022-12-18T09:25:42.185Z,67.29
2022-12-18T09:28:17.034Z,66.98
2022-12-18T09:30:46.783Z,67.20
2022-12-18T09:33:13.700Z,66.98
2022-12-18T09:35:42.277Z,67.11
2022-12-18T09:38:13.146Z,67.01
2022-12-18T09:40:46.037Z,66.63
2022-12-18T09:43:45.254Z,66.94
2022-12-18T09:46:28.160Z,66.75
2022-12-18T09:49:00.481Z,67.09
2022-12-18T09:51:33.516Z,66.61
2022-12-18T09:54:04.579Z,66.78
2022-12-18T09:56:38.562Z,66.02
2022-12-18T09:59:06.284Z,66.60
2022-12-18T10:01:43.256Z,66.60
2022-12-18T10:04:11.288Z,66.61
2022-12-18T10:06:49.585Z,66.54
2022-12-18T10:10:06.996Z,66.55
2022-12-18T10:12:39.586Z,66.83
2022-12-18T10:15:16.916Z,66.70
2022-12-18T10:17:53.091Z,66.07
2022-12-18T10:20:46.316Z,65.98
2022-12-18T10:23:29.271Z,65.99
2022-12-18T10:26:26.745Z,65.50
2022-12-18T10:28:55.340Z,65.67
2022-12-18T10:31:24.728Z,65.63
2022-12-18T10:33:52.433Z,65.58
2022-12-18T10:36:19.185Z,65.55
2022-12-18T10:38:45.767Z,65.53
2022-12-18T10:41:18.347Z,65.12
2022-12-18T10:43:45.247Z,65.18
2022-12-18T10:46:11.793Z,64.10
2022-12-18T10:48:48.467Z,65.02
2022-12-18T10:51:21.196Z,65.25
2022-12-18T10:53:53.909Z,64.77
2022-12-18T10:56:22.141Z,64.39
2022-12-18T10:59:04.935Z,63.12
2022-12-18T11:01:49.527Z,63.13
2022-12-18T11:04:20.112Z,63.14
2022-12-18T11:07:07.804Z,62.22
2022-12-18T11:09:38.014Z,62.63
2022-12-18T11:12:23.501Z,62.56
2022-12-18T11:14:52.875Z,62.12
2022-12-18T11:17:28.496Z,62.09
2022-12-18T11:20:00.549Z,62.39
2022-12-18T11:22:32.376Z,61.39
2022-12-18T11:28:04.282Z,61.80
2022-12-18T11:30:33.489Z,62.49
2022-12-18T11:33:21.874Z,61.67
2022-12-18T11:35:53.771Z,61.18
2022-12-18T11:38:36.814Z,61.30
2022-12-18T11:41:45.679Z,61.57
2022-12-18T11:44:19.334Z,61.28
2022-12-18T11:46:52.577Z,61.62
2022-12-18T11:49:37.047Z,60.99
2022-12-18T11:52:22.214Z,60.24
2022-12-18T11:54:52.757Z,61.23
2022-12-18T11:57:43.285Z,60.49
2022-12-18T12:00:23.496Z,60.67
2022-12-18T12:03:10.744Z,60.64
2022-12-18T12:05:51.039Z,61.16
2022-12-18T12:08:30.682Z,60.64
2022-12-18T12:11:11.244Z,60.96
2022-12-18T12:14:03.646Z,60.47
2022-12-18T12:16:47.864Z,60.65
2022-12-18T12:19:17.197Z,60.92
2022-12-18T12:21:53.554Z,61.61
2022-12-18T12:24:49.163Z,61.36
2022-12-18T12:27:49.281Z,61.45
2022-12-18T12:30:40.623Z,61.38
2022-12-18T12:33:07.224Z,61.20
2022-12-18T12:36:01.446Z,61.44
2022-12-18T12:38:42.329Z,61.98
2022-12-18T12:41:34.440Z,62.61
2022-12-18T12:44:08.869Z,62.43
2022-12-18T12:46:41.362Z,62.72
2022-12-18T12:49:16.497Z,62.48
2022-12-18T12:51:48.702Z,62.81
2022-12-18T12:54:22.947Z,62.86
2022-12-18T12:56:54.741Z,63.35
2022-12-18T12:59:31.868Z,63.02
2022-12-18T13:02:07.596Z,63.45
2022-12-18T13:04:46.602Z,63.42
2022-12-18T13:07:21.554Z,64.21
2022-12-18T13:10:20.855Z,63.98
2022-12-18T13:13:00.737Z,63.80
2022-12-18T13:15:39.735Z,63.71
2022-12-18T13:18:06.646Z,63.74
2022-12-18T13:20:40.965Z,64.18
2022-12-18T13:23:29.397Z,63.68
2022-12-18T13:26:01.391Z,64.05
2022-12-18T13:28:37.737Z,64.16
2022-12-18T13:31:04.744Z,64.37
2022-12-18T13:34:02.073Z,63.79
2022-12-18T13:36:30.315Z,64.73
2022-12-18T13:39:28.884Z,65.48
2022-12-18T13:42:06.081Z,65.50
2022-12-18T13:44:40.828Z,65.61
2022-12-18T13:47:26.647Z,66.17
2022-12-18T13:49:53.896Z,65.89
2022-12-18T13:52:25.734Z,66.05
2022-12-18T13:54:56.353Z,66.29
2022-12-18T13:57:33.638Z,66.52
2022-12-18T14:00:26.210Z,66.58
2022-12-18T14:02:52.971Z,66.58
2022-12-18T14:05:23.658Z,66.66
2022-12-18T14:07:51.536Z,66.71
2022-12-18T14:10:45.585Z,66.99
2022-12-18T14:13:09.899Z,67.48
2022-12-18T14:15:43.671Z,67.98
2022-12-18T14:18:16.479Z,68.64
2022-12-18T14:20:49.220Z,68.37
2022-12-18T14:23:36.959Z,68.64
2022-12-18T14:26:21.221Z,69.04
2022-12-18T14:28:48.263Z,69.32
2022-12-18T14:31:33.049Z,70.21
2022-12-18T14:33:59.653Z,71.31
2022-12-18T14:36:28.631Z,71.07
2022-12-18T14:38:57.531Z,71.09
2022-12-18T14:41:25.465Z,71.37
2022-12-18T14:43:54.854Z,71.40
2022-12-18T14:46:33.582Z,71.32
2022-12-18T14:49:02.973Z,71.66
2022-12-18T14:51:32.505Z,71.68
2022-12-18T14:54:02.430Z,71.96
2022-12-18T14:56:45.321Z,71.98
2022-12-18T14:59:24.665Z,72.43
2022-12-18T15:02:23.595Z,73.27
2022-12-18T15:05:13.453Z,73.14
2022-12-18T15:07:46.384Z,73.36
2022-12-18T15:10:16.595Z,73.37
2022-12-18T15:12:45.554Z,73.52
2022-12-18T15:15:34.138Z,74.67
2022-12-18T15:18:09.786Z,74.63
2022-12-18T15:21:00.772Z,75.04
2022-12-18T15:23:29.033Z,75.20
2022-12-18T15:26:00.684Z,74.73
2022-12-18T15:28:33.241Z,75.28
2022-12-18T15:31:06.445Z,75.35
2022-12-18T15:33:36.646Z,75.50
2022-12-18T15:36:06.082Z,75.61
2022-12-18T15:38:33.152Z,75.55
2022-12-18T15:40:59.791Z,75.65
2022-12-18T15:43:36.231Z,75.17
2022-12-18T15:46:32.348Z,75.44
2022-12-18T15:49:02.077Z,76.00
2022-12-18T15:51:33.043Z,76.13
2022-12-18T15:54:04.590Z,75.99
2022-12-18T15:56:50.497Z,75.53
2022-12-18T15:59:19.692Z,75.84
2022-12-18T16:01:48.989Z,75.35
2022-12-18T16:04:18.761Z,75.63
2022-12-18T16:07:13.372Z,75.62
2022-12-18T16:09:31.906Z,75.99
2022-12-18T16:11:59.525Z,76.41
2022-12-18T16:14:30.090Z,75.98
2022-12-18T16:17:02.801Z,76.58
2022-12-18T16:19:30.694Z,76.52
2022-12-18T16:21:58.952Z,76.27
2022-12-18T16:24:28.965Z,76.42
2022-12-18T16:26:57.621Z,76.03
2022-12-18T16:29:28.067Z,75.72
2022-12-18T16:31:59.965Z,76.35
2022-12-18T16:34:29.482Z,76.66
2022-12-18T16:37:08.207Z,76.56
2022-12-18T16:39:36.024Z,76.01
2022-12-18T16:42:13.391Z,76.07
2022-12-18T16:44:39.937Z,76.54
2022-12-18T16:47:06.740Z,76.74
2022-12-18T16:49:36.080Z,76.51
2022-12-18T16:52:03.830Z,76.45
2022-12-18T16:54:30.504Z,76.67
2022-12-18T16:56:58.008Z,76.43
2022-12-18T16:59:26.697Z,76.85
2022-12-18T17:01:53.522Z,76.69
2022-12-18T17:04:20.191Z,76.45
2022-12-18T17:06:51.767Z,76.19
2022-12-18T17:09:28.401Z,76.15
2022-12-18T17:11:55.262Z,76.05
2022-12-18T17:14:24.384Z,76.12
2022-12-18T17:17:19.162Z,76.46
2022-12-18T17:19:38.766Z,76.52
2022-12-18T17:22:05.462Z,76.26
2022-12-18T17:24:35.244Z,76.46
2022-12-18T17:27:03.156Z,76.59
2022-12-18T17:29:30.157Z,76.21
2022-12-18T17:31:57.288Z,75.93
2022-12-18T17:34:24.349Z,75.67
2022-12-18T17:36:51.015Z,76.18
2022-12-18T17:39:19.922Z,76.70
2022-12-18T17:41:47.726Z,76.79
2022-12-18T17:44:14.586Z,76.59
2022-12-18T17:46:41.209Z,76.51
2022-12-18T17:49:07.960Z,76.12
2022-12-18T17:51:34.510Z,76.31
2022-12-18T17:54:01.229Z,76.15
2022-12-18T17:56:28.578Z,75.88
2022-12-18T17:58:55.429Z,76.15
2022-12-18T18:01:25.000Z,75.99
2022-12-18T18:03:54.146Z,76.40
2022-12-18T18:06:21.296Z,76.51
2022-12-18T18:08:48.394Z,76.56
2022-12-18T18:11:36.962Z,76.58
2022-12-18T18:14:07.082Z,76.39
2022-12-18T18:16:45.362Z,76.73
2022-12-18T18:19:15.983Z,77.06
2022-12-18T18:21:45.758Z,76.92
2022-12-18T18:24:16.324Z,76.99
2022-12-18T18:26:43.192Z,76.85
2022-12-18T18:29:15.125Z,76.90
2022-12-18T18:31:41.891Z,77.48
2022-12-18T18:34:13.734Z,77.10
2022-12-18T18:36:40.130Z,77.08
2022-12-18T18:39:07.131Z,77.17
2022-12-18T18:41:35.647Z,77.33
2022-12-18T18:44:02.789Z,77.40
2022-12-18T18:46:29.291Z,77.13
2022-12-18T18:48:56.146Z,77.23
2022-12-18T18:51:23.004Z,77.48
2022-12-18T18:53:52.180Z,76.92
2022-12-18T18:59:08.324Z,76.63
2022-12-18T19:01:35.108Z,77.03
2022-12-18T19:04:03.138Z,77.02
2022-12-18T19:06:30.074Z,76.90
2022-12-18T19:08:58.865Z,76.99
2022-12-18T19:11:44.619Z,77.38
2022-12-18T19:14:14.231Z,77.07
2022-12-18T19:16:41.555Z,77.52
2022-12-18T19:19:08.503Z,77.11
2022-12-18T19:21:37.297Z,76.42
2022-12-18T19:24:06.655Z,76.86
2022-12-18T19:26:36.508Z,76.97
2022-12-18T19:29:08.632Z,76.79
2022-12-18T19:31:37.389Z,76.89
2022-12-18T19:34:06.907Z,76.90
2022-12-18T19:36:37.120Z,77.21
2022-12-18T19:39:12.140Z,77.36
2022-12-18T19:41:38.935Z,77.34
2022-12-18T19:44:07.677Z,77.03
2022-12-18T19:46:34.927Z,77.45
2022-12-18T19:49:02.235Z,77.33
2022-12-18T19:51:30.948Z,77.84
2022-12-18T19:54:01.461Z,77.09
2022-12-18T19:56:31.363Z,77.40
2022-12-18T19:58:58.631Z,78.04
2022-12-18T20:01:26.641Z,78.06
2022-12-18T20:03:55.282Z,77.95
2022-12-18T20:06:35.207Z,77.88
2022-12-18T20:09:07.101Z,78.08
2022-12-18T20:11:38.825Z,77.70
2022-12-18T20:14:12.655Z,77.50
2022-12-18T20:16:40.407Z,77.67
2022-12-18T20:19:07.871Z,77.72
2022-12-18T20:21:34.410Z,77.15
2022-12-18T20:24:01.971Z,76.62
2022-12-18T20:26:28.563Z,76.95
2022-12-18T20:28:55.546Z,77.08
2022-12-18T20:31:22.309Z,77.09
2022-12-18T20:33:59.581Z,76.80
2022-12-18T20:36:27.114Z,77.37
2022-12-18T20:38:58.180Z,77.65
2022-12-18T20:41:27.360Z,77.88
2022-12-18T20:44:04.646Z,77.68
2022-12-18T20:46:33.945Z,77.85
2022-12-18T20:49:03.487Z,77.81
2022-12-18T20:51:31.619Z,77.46
2022-12-18T20:53:59.619Z,77.22
2022-12-18T20:56:30.533Z,76.75
2022-12-18T20:58:58.724Z,77.26
2022-12-18T21:01:26.779Z,77.35
2022-12-18T21:03:54.379Z,77.84
2022-12-18T21:06:24.888Z,77.82
2022-12-18T21:08:51.576Z,78.20
2022-12-18T21:11:39.353Z,77.85
2022-12-18T21:14:19.152Z,78.04
2022-12-18T21:16:46.362Z,78.14
2022-12-18T21:19:24.342Z,77.76
2022-12-18T21:21:58.766Z,78.37
2022-12-18T21:24:25.656Z,77.88
2022-12-18T21:26:53.912Z,78.16
2022-12-18T21:29:23.497Z,78.09
2022-12-18T21:31:51.850Z,78.02
2022-12-18T21:34:21.286Z,78.05
2022-12-18T21:36:49.553Z,78.03
2022-12-18T21:39:16.998Z,78.00
2022-12-18T21:42:03.917Z,77.75
2022-12-18T21:44:30.884Z,77.93
2022-12-18T21:47:15.135Z,77.42
2022-12-18T21:49:48.664Z,77.76
2022-12-18T21:52:15.176Z,77.56
2022-12-18T21:54:41.713Z,77.71
2022-12-18T21:57:08.659Z,77.79
2022-12-18T21:59:37.470Z,77.77
2022-12-18T22:02:11.500Z,78.17
2022-12-18T22:04:38.066Z,78.53
2022-12-18T22:07:06.162Z,78.10
2022-12-18T22:09:32.906Z,77.89
2022-12-18T22:11:59.533Z,78.00
2022-12-18T22:14:26.092Z,77.81
2022-12-18T22:16:52.726Z,77.51
2022-12-18T22:19:20.213Z,77.52
2022-12-18T22:21:48.611Z,78.03
2022-12-18T22:24:23.742Z,78.09
2022-12-18T22:26:52.892Z,77.78
2022-12-18T22:29:44.882Z,78.43
2022-12-18T22:32:16.259Z,78.30
2022-12-18T22:34:43.593Z,78.64
2022-12-18T22:37:12.007Z,78.56
2022-12-18T22:39:38.832Z,78.22
2022-12-18T22:42:06.246Z,78.19
2022-12-18T22:44:32.747Z,78.17
2022-12-18T22:47:06.379Z,78.48
2022-12-18T22:49:35.152Z,78.10
2022-12-18T22:52:03.947Z,78.13
2022-12-18T22:54:30.709Z,78.02
2022-12-18T22:56:57.570Z,78.09
2022-12-18T22:59:24.641Z,78.51
2022-12-18T23:01:54.542Z,78.29
2022-12-18T23:04:31.191Z,78.26
2022-12-18T23:07:04.540Z,77.79
2022-12-18T23:09:31.230Z,77.90
2022-12-18T23:11:57.716Z,77.54
2022-12-18T23:14:24.238Z,77.80
2022-12-18T23:16:50.792Z,77.54
2022-12-18T23:19:19.957Z,77.88
2022-12-18T23:21:46.522Z,77.65
2022-12-18T23:24:13.454Z,77.55
2022-12-18T23:26:40.014Z,77.89
2022-12-18T23:29:07.304Z,78.17
2022-12-18T23:31:36.409Z,78.21
2022-12-18T23:34:03.873Z,78.40
2022-12-18T23:36:32.299Z,78.54
2022-12-18T23:39:12.346Z,78.31
2022-12-18T23:41:41.908Z,78.34
2022-12-18T23:44:09.988Z,77.61
2022-12-18T23:46:37.547Z,77.64
2022-12-18T23:49:05.841Z,78.14
2022-12-18T23:51:33.157Z,78.35
2022-12-18T23:54:02.239Z,77.94
2022-12-18T23:56:30.075Z,78.49
2022-12-18T23:58:57.349Z,78.50
